createdAt,value
2018-03-25T00:02:38.304Z,71.79
2018-03-25T00:07:40.974Z,71.77
2018-03-25T00:12:43.511Z,71.77
2018-03-25T00:17:46.132Z,72.06
2018-03-25T00:22:48.685Z,71.94
2018-03-25T00:27:51.228Z,71.92
2018-03-25T00:32:53.713Z,71.94
2018-03-25T00:37:56.182Z,72.03
2018-03-25T00:42:58.704Z,72.07
2018-03-25T00:48:01.569Z,72.02
2018-03-25T00:53:04.081Z,72.00
2018-03-25T00:58:06.543Z,71.97
2018-03-25T01:03:09.103Z,72.02
2018-03-25T01:08:11.608Z,72.03
2018-03-25T01:13:14.160Z,71.99
2018-03-25T01:18:16.725Z,71.87
2018-03-25T01:23:19.402Z,72.00
2018-03-25T01:28:21.886Z,72.03
2018-03-25T01:33:24.354Z,71.98
2018-03-25T01:38:26.856Z,71.98
2018-03-25T01:43:29.371Z,72.13
2018-03-25T01:48:31.868Z,72.05
2018-03-25T01:53:34.318Z,72.15
2018-03-25T01:58:36.777Z,72.14
2018-03-25T02:03:39.452Z,72.13
2018-03-25T02:08:42.166Z,72.21
2018-03-25T02:13:44.683Z,72.27
2018-03-25T02:18:47.184Z,72.29
2018-03-25T02:23:49.668Z,72.18
2018-03-25T02:28:52.240Z,72.18
2018-03-25T02:33:54.702Z,72.16
2018-03-25T02:38:57.177Z,72.17
2018-03-25T02:43:59.642Z,72.19
2018-03-25T02:49:02.110Z,72.16
2018-03-25T02:54:04.603Z,72.17
2018-03-25T02:59:07.128Z,72.23
2018-03-25T03:04:09.682Z,72.48
2018-03-25T03:09:12.222Z,72.50
2018-03-25T03:14:14.766Z,72.48
2018-03-25T03:19:17.284Z,72.54
2018-03-25T03:24:19.761Z,72.56
2018-03-25T03:29:22.221Z,72.53
2018-03-25T03:34:24.703Z,72.41
2018-03-25T03:39:27.210Z,72.37
2018-03-25T03:44:29.692Z,72.46
2018-03-25T03:49:32.704Z,72.48
2018-03-25T03:54:35.200Z,72.64
2018-03-25T03:59:37.780Z,72.54
2018-03-25T04:04:40.394Z,72.50
2018-03-25T04:09:42.918Z,72.45
2018-03-25T04:14:45.433Z,72.32
2018-03-25T04:19:48.151Z,72.26
2018-03-25T04:24:50.626Z,72.30
2018-03-25T04:29:53.147Z,72.38
2018-03-25T04:34:55.965Z,72.34
2018-03-25T04:39:58.461Z,72.31
2018-03-25T04:45:00.920Z,72.33
2018-03-25T04:50:03.377Z,72.47
2018-03-25T04:55:05.838Z,72.54
2018-03-25T05:00:08.362Z,72.41
2018-03-25T05:05:10.885Z,72.38
2018-03-25T05:10:13.548Z,72.46
2018-03-25T05:15:16.034Z,72.54
2018-03-25T05:20:18.545Z,72.53
2018-03-25T05:25:21.065Z,72.54
2018-03-25T05:30:23.655Z,72.65
2018-03-25T05:35:26.111Z,72.54
2018-03-25T05:40:28.590Z,72.27
2018-03-25T05:45:31.084Z,71.58
2018-03-25T05:50:33.565Z,71.66
2018-03-25T05:55:36.766Z,71.26
2018-03-25T06:00:39.282Z,69.66
2018-03-25T06:05:41.803Z,69.33
2018-03-25T06:10:44.316Z,66.54
2018-03-25T06:15:46.901Z,66.70
2018-03-25T06:20:49.382Z,65.15
2018-03-25T06:25:51.847Z,64.24
2018-03-25T06:30:54.346Z,63.82
2018-03-25T06:35:56.816Z,61.02
2018-03-25T06:40:59.309Z,60.11
2018-03-25T06:46:01.784Z,59.71
2018-03-25T06:51:04.278Z,59.65
2018-03-25T06:56:06.798Z,60.03
2018-03-25T07:01:09.343Z,60.35
2018-03-25T07:06:11.966Z,60.30
2018-03-25T07:11:15.577Z,59.20
2018-03-25T07:16:18.056Z,58.57
2018-03-25T07:21:20.532Z,58.34
2018-03-25T07:26:23.024Z,58.49
2018-03-25T07:31:25.517Z,57.53
2018-03-25T07:36:28.029Z,56.57
2018-03-25T07:41:30.535Z,55.00
2018-03-25T07:46:33.043Z,54.37
2018-03-25T07:51:35.517Z,54.01
2018-03-25T07:56:38.161Z,53.71
2018-03-25T08:01:40.794Z,53.72
2018-03-25T08:06:43.321Z,52.87
2018-03-25T08:11:48.010Z,53.65
2018-03-25T08:16:50.525Z,51.70
2018-03-25T08:21:53.131Z,51.53
2018-03-25T08:26:55.618Z,51.69
2018-03-25T08:31:58.110Z,51.04
2018-03-25T08:37:00.561Z,50.42
2018-03-25T08:42:03.075Z,49.52
2018-03-25T08:47:05.600Z,49.50
2018-03-25T08:52:08.084Z,48.59
2018-03-25T08:57:10.613Z,49.20
2018-03-25T09:02:13.150Z,49.22
2018-03-25T09:07:15.869Z,47.86
2018-03-25T09:12:18.435Z,47.44
2018-03-25T09:17:20.914Z,46.61
2018-03-25T09:22:23.423Z,45.33
2018-03-25T09:27:26.854Z,45.19
2018-03-25T09:32:29.341Z,46.20
2018-03-25T09:37:31.873Z,44.48
2018-03-25T09:42:34.367Z,42.09
2018-03-25T09:47:36.889Z,36.80
2018-03-25T09:52:39.516Z,31.32
2018-03-25T09:57:42.030Z,29.63
2018-03-25T10:02:50.558Z,29.79
2018-03-25T10:07:53.168Z,29.03
2018-03-25T10:12:56.844Z,29.32
2018-03-25T10:17:59.365Z,29.51
2018-03-25T10:23:01.840Z,29.29
2018-03-25T10:28:04.327Z,27.02
2018-03-25T10:33:07.133Z,29.81
2018-03-25T10:38:09.771Z,29.69
2018-03-25T10:43:12.323Z,28.12
2018-03-25T10:48:14.984Z,27.52
2018-03-25T10:53:17.576Z,29.18
2018-03-25T10:58:20.105Z,28.02
2018-03-25T11:03:22.598Z,30.78
2018-03-25T11:08:25.088Z,31.78
2018-03-25T11:13:27.565Z,32.23
2018-03-25T11:18:30.059Z,31.42
2018-03-25T11:23:32.569Z,32.45
2018-03-25T11:28:35.047Z,31.21
2018-03-25T11:33:37.660Z,32.37
2018-03-25T11:38:40.237Z,32.16
2018-03-25T11:43:42.843Z,33.15
2018-03-25T11:48:45.466Z,32.36
2018-03-25T11:53:47.950Z,32.72
2018-03-25T11:58:50.466Z,32.33
2018-03-25T12:03:53.023Z,34.83
2018-03-25T12:08:55.498Z,32.16
2018-03-25T12:13:58.163Z,31.39
2018-03-25T12:19:01.592Z,31.06
2018-03-25T12:24:04.068Z,32.09
2018-03-25T12:29:06.596Z,32.46
2018-03-25T12:34:09.117Z,31.23
2018-03-25T12:39:11.692Z,31.04
2018-03-25T12:44:14.190Z,31.16
2018-03-25T12:49:16.688Z,32.56
2018-03-25T12:54:19.200Z,31.17
2018-03-25T12:59:22.110Z,30.52
2018-03-25T13:04:25.606Z,32.02
2018-03-25T13:09:28.104Z,33.05
2018-03-25T13:14:30.627Z,32.66
2018-03-25T13:19:33.184Z,31.82
2018-03-25T13:24:35.694Z,30.66
2018-03-25T13:29:39.417Z,32.33
2018-03-25T13:34:41.986Z,33.78
2018-03-25T13:39:44.480Z,33.18
2018-03-25T13:44:46.981Z,31.70
2018-03-25T13:49:49.494Z,31.15
2018-03-25T13:54:51.994Z,33.05
2018-03-25T13:59:54.475Z,31.08
2018-03-25T14:04:56.986Z,32.23
2018-03-25T14:10:00.271Z,32.39
2018-03-25T14:15:02.802Z,32.20
2018-03-25T14:20:05.319Z,33.86
2018-03-25T14:25:07.896Z,31.53
2018-03-25T14:30:10.486Z,32.53
2018-03-25T14:35:13.145Z,30.30
2018-03-25T14:40:15.659Z,31.58
2018-03-25T14:45:18.215Z,31.15
2018-03-25T14:50:20.741Z,30.11
2018-03-25T14:55:23.236Z,31.80
2018-03-25T15:00:25.715Z,31.07
2018-03-25T15:05:28.197Z,32.76
2018-03-25T15:10:30.710Z,31.51
2018-03-25T15:15:33.286Z,30.40
2018-03-25T15:20:35.763Z,31.74
2018-03-25T15:25:38.279Z,31.16
2018-03-25T15:30:40.877Z,31.62
2018-03-25T15:35:43.433Z,32.08
2018-03-25T15:40:45.950Z,31.31
2018-03-25T15:45:48.441Z,31.56
2018-03-25T15:50:50.943Z,31.92
2018-03-25T15:55:53.431Z,32.05
2018-03-25T16:00:56.500Z,32.65
2018-03-25T16:05:58.965Z,32.18
2018-03-25T16:11:01.470Z,32.93
2018-03-25T16:16:03.998Z,33.47
2018-03-25T16:21:06.567Z,34.17
2018-03-25T16:26:09.075Z,34.38
2018-03-25T16:31:11.647Z,34.80
2018-03-25T16:36:14.157Z,35.83
2018-03-25T16:41:16.720Z,36.04
2018-03-25T16:46:19.275Z,36.40
2018-03-25T16:51:21.778Z,37.16
2018-03-25T16:56:24.311Z,37.23
2018-03-25T17:01:26.824Z,37.53
2018-03-25T17:06:29.290Z,39.09
2018-03-25T17:11:31.745Z,39.99
2018-03-25T17:16:34.204Z,40.73
2018-03-25T17:21:36.724Z,41.61
2018-03-25T17:26:39.244Z,43.09
2018-03-25T17:31:41.781Z,42.46
2018-03-25T17:36:44.323Z,43.14
2018-03-25T17:41:46.785Z,43.84
2018-03-25T17:46:49.265Z,46.35
2018-03-25T17:51:52.337Z,47.07
2018-03-25T17:56:54.836Z,47.27
2018-03-25T18:01:57.364Z,48.40
2018-03-25T18:06:59.809Z,49.29
2018-03-25T18:12:02.295Z,49.20
2018-03-25T18:17:05.602Z,49.54
2018-03-25T18:22:08.195Z,49.39
2018-03-25T18:27:10.702Z,49.38
2018-03-25T18:32:13.204Z,49.74
2018-03-25T18:37:15.905Z,49.62
2018-03-25T18:42:18.377Z,49.92
2018-03-25T18:47:20.882Z,49.67
2018-03-25T18:52:23.582Z,49.80
2018-03-25T18:57:26.089Z,50.05
2018-03-25T19:02:28.621Z,49.82
2018-03-25T19:07:31.150Z,50.14
2018-03-25T19:12:33.724Z,50.46
2018-03-25T19:17:36.419Z,50.99
2018-03-25T19:22:40.002Z,51.19
2018-03-25T19:27:43.475Z,51.64
2018-03-25T19:32:46.124Z,51.43
2018-03-25T19:37:48.801Z,51.52
2018-03-25T19:42:52.756Z,51.49
2018-03-25T19:47:55.295Z,51.80
2018-03-25T19:52:57.773Z,52.12
2018-03-25T19:58:02.249Z,52.94
2018-03-25T20:03:04.721Z,52.95
2018-03-25T20:08:07.211Z,53.23
2018-03-25T20:13:09.680Z,53.44
2018-03-25T20:18:12.194Z,53.19
2018-03-25T20:23:14.668Z,52.32
2018-03-25T20:28:17.208Z,51.30
2018-03-25T20:33:19.687Z,51.52
2018-03-25T20:38:24.625Z,51.13
2018-03-25T20:43:27.213Z,50.55
2018-03-25T20:48:29.706Z,49.72
2018-03-25T20:53:34.516Z,48.87
2018-03-25T20:58:39.464Z,48.35
2018-03-25T21:03:42.082Z,47.52
2018-03-25T21:08:44.589Z,47.93
2018-03-25T21:13:47.270Z,48.11
2018-03-25T21:18:49.775Z,47.81
2018-03-25T21:23:52.262Z,48.06
2018-03-25T21:28:55.864Z,47.89
2018-03-25T21:34:00.764Z,47.90
2018-03-25T21:39:04.366Z,48.15
2018-03-25T21:44:11.128Z,48.59
2018-03-25T21:49:15.933Z,48.76
2018-03-25T21:54:20.301Z,48.91
2018-03-25T21:59:26.296Z,48.61
2018-03-25T22:04:31.570Z,48.71
2018-03-25T22:09:34.405Z,48.88
2018-03-25T22:14:36.917Z,48.82
2018-03-25T22:19:39.484Z,48.91
2018-03-25T22:24:41.987Z,49.56
2018-03-25T22:29:44.476Z,49.38
2018-03-25T22:34:47.011Z,49.49
2018-03-25T22:39:49.527Z,49.60
2018-03-25T22:44:52.001Z,49.93
2018-03-25T22:49:54.457Z,50.20
2018-03-25T22:54:56.933Z,50.11
2018-03-25T22:59:59.427Z,50.02
2018-03-25T23:05:01.908Z,49.98
2018-03-25T23:10:04.408Z,50.17
2018-03-25T23:15:06.893Z,50.50
2018-03-25T23:20:09.397Z,50.33
2018-03-25T23:25:11.885Z,50.34
2018-03-25T23:30:14.406Z,50.48
2018-03-25T23:35:17.017Z,50.49
2018-03-25T23:40:19.474Z,50.83
2018-03-25T23:45:21.926Z,50.73
2018-03-25T23:50:24.396Z,51.13
2018-03-25T23:55:26.876Z,50.97
